<?xml version="1.0" encoding="UTF-8"?>
<gpx version="1.0" creator="Trackator" xmlns:xsi="http://www.w3.org/2001/XMLSchema-instance" xmlns="http://www.topografix.com/GPX/1/0" xmlns:topografix="http://www.topografix.com/GPX/Private/TopoGrafix/0/1" xsi:schemaLocation="http://www.topografix.com/GPX/1/0 http://www.topografix.com/GPX/1/0/gpx.xsd http://www.topografix.com/GPX/Private/TopoGrafix/0/1 http://www.topografix.com/GPX/Private/TopoGrafix/0/1/topografix.xsd">
<metadata>
<link href="http://www.trackalia.com/trackatorweb.php">
<text>Trackator</text>
</link>
</metadata>
<time>2017-10-08T13:28:17Z</time>
<trk>
<name>Track: </name>
<desc>4x4-SUV</desc>
<trkseg>
<trkpt lat="53.8909460" lon="15.7042566">
<ele>93</ele>
<time>2017-10-08T13:28:17Z</time>
</trkpt>
<trkpt lat="53.8909460" lon="15.7042566">
<ele>93</ele>
<time>2017-10-08T13:28:23Z</time>
</trkpt>
<trkpt lat="53.8909460" lon="15.7042566">
<ele>93</ele>
<time>2017-10-08T13:28:29Z</time>
</trkpt>
<trkpt lat="53.8909460" lon="15.7042566">
<ele>93</ele>
<time>2017-10-08T13:28:35Z</time>
</trkpt>
<trkpt lat="53.8909460" lon="15.7042566">
<ele>93</ele>
<time>2017-10-08T13:28:41Z</time>
</trkpt>
<trkpt lat="53.8909460" lon="15.7042566">
<ele>93</ele>
<time>2017-10-08T13:28:47Z</time>
</trkpt>
<trkpt lat="53.8909460" lon="15.7042566">
<ele>93</ele>
<time>2017-10-08T13:28:53Z</time>
</trkpt>
<trkpt lat="53.8909460" lon="15.7042566">
<ele>93</ele>
<time>2017-10-08T13:28:59Z</time>
</trkpt>
<trkpt lat="53.8909460" lon="15.7042566">
<ele>93</ele>
<time>2017-10-08T13:29:05Z</time>
</trkpt>
<trkpt lat="53.8909460" lon="15.7042566">
<ele>93</ele>
<time>2017-10-08T13:29:11Z</time>
</trkpt>
<trkpt lat="53.8909460" lon="15.7042566">
<ele>93</ele>
<time>2017-10-08T13:29:17Z</time>
</trkpt>
<trkpt lat="53.8909460" lon="15.7042566">
<ele>93</ele>
<time>2017-10-08T13:29:23Z</time>
</trkpt>
<trkpt lat="53.8909460" lon="15.7042566">
<ele>93</ele>
<time>2017-10-08T13:29:29Z</time>
</trkpt>
<trkpt lat="53.8909460" lon="15.7042566">
<ele>93</ele>
<time>2017-10-08T13:29:35Z</time>
</trkpt>
<trkpt lat="53.8909460" lon="15.7042566">
<ele>93</ele>
<time>2017-10-08T13:29:41Z</time>
</trkpt>
<trkpt lat="53.8909460" lon="15.7042566">
<ele>93</ele>
<time>2017-10-08T13:29:47Z</time>
</trkpt>
<trkpt lat="53.8909460" lon="15.7042566">
<ele>93</ele>
<time>2017-10-08T13:29:53Z</time>
</trkpt>
<trkpt lat="53.8909460" lon="15.7042566">
<ele>93</ele>
<time>2017-10-08T13:29:59Z</time>
</trkpt>
<trkpt lat="53.8909460" lon="15.7042566">
<ele>93</ele>
<time>2017-10-08T13:30:05Z</time>
</trkpt>
<trkpt lat="53.8909460" lon="15.7042566">
<ele>93</ele>
<time>2017-10-08T13:30:11Z</time>
</trkpt>
<trkpt lat="53.8909460" lon="15.7042566">
<ele>93</ele>
<time>2017-10-08T13:30:17Z</time>
</trkpt>
<trkpt lat="53.8909460" lon="15.7042566">
<ele>93</ele>
<time>2017-10-08T13:30:23Z</time>
</trkpt>
<trkpt lat="53.8909460" lon="15.7042566">
<ele>93</ele>
<time>2017-10-08T13:30:29Z</time>
</trkpt>
<trkpt lat="53.8909460" lon="15.7042566">
<ele>93</ele>
<time>2017-10-08T13:30:41Z</time>
</trkpt>
<trkpt lat="53.8909460" lon="15.7042566">
<ele>93</ele>
<time>2017-10-08T13:30:47Z</time>
</trkpt>
<trkpt lat="53.8909460" lon="15.7042566">
<ele>93</ele>
<time>2017-10-08T13:30:53Z</time>
</trkpt>
<trkpt lat="53.8909460" lon="15.7042566">
<ele>93</ele>
<time>2017-10-08T13:30:59Z</time>
</trkpt>
<trkpt lat="53.8909460" lon="15.7042566">
<ele>93</ele>
<time>2017-10-08T13:31:05Z</time>
</trkpt>
<trkpt lat="53.8909460" lon="15.7042566">
<ele>93</ele>
<time>2017-10-08T13:31:11Z</time>
</trkpt>
<trkpt lat="53.8909460" lon="15.7042566">
<ele>93</ele>
<time>2017-10-08T13:31:17Z</time>
</trkpt>
<trkpt lat="53.8909460" lon="15.7042566">
<ele>93</ele>
<time>2017-10-08T13:31:23Z</time>
</trkpt>
<trkpt lat="53.8909460" lon="15.7042566">
<ele>93</ele>
<time>2017-10-08T13:31:29Z</time>
</trkpt>
<trkpt lat="53.8909221" lon="15.7042424">
<ele>93</ele>
<time>2017-10-08T13:31:35Z</time>
</trkpt>
<trkpt lat="53.8908890" lon="15.7042310">
<ele>93</ele>
<time>2017-10-08T13:31:41Z</time>
</trkpt>
<trkpt lat="53.8909022" lon="15.7042923">
<ele>92</ele>
<time>2017-10-08T13:31:47Z</time>
</trkpt>
<trkpt lat="53.8908974" lon="15.7045184">
<ele>92</ele>
<time>2017-10-08T13:31:53Z</time>
</trkpt>
<trkpt lat="53.8909089" lon="15.7047128">
<ele>89</ele>
<time>2017-10-08T13:31:59Z</time>
</trkpt>
<trkpt lat="53.8909210" lon="15.7049223">
<ele>87</ele>
<time>2017-10-08T13:32:05Z</time>
</trkpt>
<trkpt lat="53.8909115" lon="15.7050630">
<ele>87</ele>
<time>2017-10-08T13:32:11Z</time>
</trkpt>
<trkpt lat="53.8908307" lon="15.7051155">
<ele>88</ele>
<time>2017-10-08T13:32:17Z</time>
</trkpt>
<trkpt lat="53.8906483" lon="15.7051098">
<ele>89</ele>
<time>2017-10-08T13:32:23Z</time>
</trkpt>
<trkpt lat="53.8903908" lon="15.7051463">
<ele>88</ele>
<time>2017-10-08T13:32:29Z</time>
</trkpt>
<trkpt lat="53.8901525" lon="15.7052325">
<ele>87</ele>
<time>2017-10-08T13:32:35Z</time>
</trkpt>
<trkpt lat="53.8900910" lon="15.7053497">
<ele>85</ele>
<time>2017-10-08T13:32:41Z</time>
</trkpt>
<trkpt lat="53.8901014" lon="15.7057551">
<ele>85</ele>
<time>2017-10-08T13:32:47Z</time>
</trkpt>
<trkpt lat="53.8901350" lon="15.7062673">
<ele>85</ele>
<time>2017-10-08T13:32:53Z</time>
</trkpt>
<trkpt lat="53.8901124" lon="15.7068846">
<ele>86</ele>
<time>2017-10-08T13:32:59Z</time>
</trkpt>
<trkpt lat="53.8900760" lon="15.7075362">
<ele>87</ele>
<time>2017-10-08T13:33:05Z</time>
</trkpt>
<trkpt lat="53.8901731" lon="15.7083276">
<ele>88</ele>
<time>2017-10-08T13:33:11Z</time>
</trkpt>
<trkpt lat="53.8903932" lon="15.7091195">
<ele>88</ele>
<time>2017-10-08T13:33:17Z</time>
</trkpt>
<trkpt lat="53.8908093" lon="15.7098470">
<ele>89</ele>
<time>2017-10-08T13:33:23Z</time>
</trkpt>
<trkpt lat="53.8912245" lon="15.7106811">
<ele>89</ele>
<time>2017-10-08T13:33:29Z</time>
</trkpt>
<trkpt lat="53.8915684" lon="15.7113222">
<ele>92</ele>
<time>2017-10-08T13:33:35Z</time>
</trkpt>
<trkpt lat="53.8916691" lon="15.7116080">
<ele>90</ele>
<time>2017-10-08T13:33:41Z</time>
</trkpt>
<trkpt lat="53.8917851" lon="15.7119933">
<ele>89</ele>
<time>2017-10-08T13:33:47Z</time>
</trkpt>
<trkpt lat="53.8920210" lon="15.7125691">
<ele>91</ele>
<time>2017-10-08T13:33:53Z</time>
</trkpt>
<trkpt lat="53.8922892" lon="15.7132875">
<ele>92</ele>
<time>2017-10-08T13:33:59Z</time>
</trkpt>
<trkpt lat="53.8926889" lon="15.7142601">
<ele>93</ele>
<time>2017-10-08T13:34:05Z</time>
</trkpt>
<trkpt lat="53.8931041" lon="15.7152569">
<ele>92</ele>
<time>2017-10-08T13:34:11Z</time>
</trkpt>
<trkpt lat="53.8935648" lon="15.7164657">
<ele>90</ele>
<time>2017-10-08T13:34:17Z</time>
</trkpt>
<trkpt lat="53.8940916" lon="15.7178866">
<ele>90</ele>
<time>2017-10-08T13:34:23Z</time>
</trkpt>
<trkpt lat="53.8946408" lon="15.7193625">
<ele>91</ele>
<time>2017-10-08T13:34:29Z</time>
</trkpt>
<trkpt lat="53.8952313" lon="15.7209331">
<ele>90</ele>
<time>2017-10-08T13:34:35Z</time>
</trkpt>
<trkpt lat="53.8958691" lon="15.7226112">
<ele>90</ele>
<time>2017-10-08T13:34:41Z</time>
</trkpt>
<trkpt lat="53.8964844" lon="15.7242527">
<ele>91</ele>
<time>2017-10-08T13:34:47Z</time>
</trkpt>
<trkpt lat="53.8970816" lon="15.7258472">
<ele>91</ele>
<time>2017-10-08T13:34:53Z</time>
</trkpt>
<trkpt lat="53.8976874" lon="15.7274718">
<ele>91</ele>
<time>2017-10-08T13:34:59Z</time>
</trkpt>
<trkpt lat="53.8983012" lon="15.7291094">
<ele>91</ele>
<time>2017-10-08T13:35:05Z</time>
</trkpt>
<trkpt lat="53.8989276" lon="15.7307521">
<ele>87</ele>
<time>2017-10-08T13:35:11Z</time>
</trkpt>
<trkpt lat="53.8995500" lon="15.7323996">
<ele>84</ele>
<time>2017-10-08T13:35:17Z</time>
</trkpt>
<trkpt lat="53.9001735" lon="15.7340446">
<ele>86</ele>
<time>2017-10-08T13:35:23Z</time>
</trkpt>
<trkpt lat="53.9008332" lon="15.7356865">
<ele>85</ele>
<time>2017-10-08T13:35:29Z</time>
</trkpt>
<trkpt lat="53.9015316" lon="15.7373253">
<ele>86</ele>
<time>2017-10-08T13:35:35Z</time>
</trkpt>
<trkpt lat="53.9022248" lon="15.7389596">
<ele>90</ele>
<time>2017-10-08T13:35:41Z</time>
</trkpt>
<trkpt lat="53.9029374" lon="15.7405742">
<ele>91</ele>
<time>2017-10-08T13:35:47Z</time>
</trkpt>
<trkpt lat="53.9037595" lon="15.7419902">
<ele>91</ele>
<time>2017-10-08T13:35:53Z</time>
</trkpt>
<trkpt lat="53.9046172" lon="15.7433928">
<ele>91</ele>
<time>2017-10-08T13:35:59Z</time>
</trkpt>
<trkpt lat="53.9054131" lon="15.7447527">
<ele>89</ele>
<time>2017-10-08T13:36:05Z</time>
</trkpt>
<trkpt lat="53.9062677" lon="15.7461854">
<ele>89</ele>
<time>2017-10-08T13:36:11Z</time>
</trkpt>
<trkpt lat="53.9070618" lon="15.7478380">
<ele>90</ele>
<time>2017-10-08T13:36:17Z</time>
</trkpt>
<trkpt lat="53.9076351" lon="15.7496723">
<ele>90</ele>
<time>2017-10-08T13:36:23Z</time>
</trkpt>
<trkpt lat="53.9081079" lon="15.7515111">
<ele>93</ele>
<time>2017-10-08T13:36:29Z</time>
</trkpt>
<trkpt lat="53.9082311" lon="15.7534332">
<ele>94</ele>
<time>2017-10-08T13:36:35Z</time>
</trkpt>
<trkpt lat="53.9083228" lon="15.7553536">
<ele>94</ele>
<time>2017-10-08T13:36:41Z</time>
</trkpt>
<trkpt lat="53.9084118" lon="15.7572443">
<ele>95</ele>
<time>2017-10-08T13:36:47Z</time>
</trkpt>
<trkpt lat="53.9084253" lon="15.7589859">
<ele>96</ele>
<time>2017-10-08T13:36:53Z</time>
</trkpt>
<trkpt lat="53.9080513" lon="15.7605592">
<ele>94</ele>
<time>2017-10-08T13:36:59Z</time>
</trkpt>
<trkpt lat="53.9077353" lon="15.7620239">
<ele>96</ele>
<time>2017-10-08T13:37:05Z</time>
</trkpt>
<trkpt lat="53.9076504" lon="15.7633698">
<ele>95</ele>
<time>2017-10-08T13:37:11Z</time>
</trkpt>
<trkpt lat="53.9077918" lon="15.7647708">
<ele>92</ele>
<time>2017-10-08T13:37:17Z</time>
</trkpt>
<trkpt lat="53.9080561" lon="15.7662339">
<ele>90</ele>
<time>2017-10-08T13:37:23Z</time>
</trkpt>
<trkpt lat="53.9083459" lon="15.7677845">
<ele>88</ele>
<time>2017-10-08T13:37:29Z</time>
</trkpt>
<trkpt lat="53.9085980" lon="15.7693759">
<ele>88</ele>
<time>2017-10-08T13:37:35Z</time>
</trkpt>
<trkpt lat="53.9088402" lon="15.7710409">
<ele>93</ele>
<time>2017-10-08T13:37:41Z</time>
</trkpt>
<trkpt lat="53.9090714" lon="15.7725250">
<ele>93</ele>
<time>2017-10-08T13:37:47Z</time>
</trkpt>
<trkpt lat="53.9095995" lon="15.7730979">
<ele>96</ele>
<time>2017-10-08T13:37:53Z</time>
</trkpt>
<trkpt lat="53.9103567" lon="15.7733039">
<ele>95</ele>
<time>2017-10-08T13:37:59Z</time>
</trkpt>
<trkpt lat="53.9111664" lon="15.7738403">
<ele>96</ele>
<time>2017-10-08T13:38:05Z</time>
</trkpt>
<trkpt lat="53.9118404" lon="15.7750616">
<ele>93</ele>
<time>2017-10-08T13:38:11Z</time>
</trkpt>
<trkpt lat="53.9125372" lon="15.7765540">
<ele>88</ele>
<time>2017-10-08T13:38:17Z</time>
</trkpt>
<trkpt lat="53.9140428" lon="15.7796428">
<ele>89</ele>
<time>2017-10-08T13:38:29Z</time>
</trkpt>
<trkpt lat="53.9132826" lon="15.7781055">
<ele>88</ele>
<time>2017-10-08T13:38:23Z</time>
</trkpt>
<trkpt lat="53.9148076" lon="15.7812224">
<ele>89</ele>
<time>2017-10-08T13:38:35Z</time>
</trkpt>
<trkpt lat="53.9155907" lon="15.7828812">
<ele>88</ele>
<time>2017-10-08T13:38:41Z</time>
</trkpt>
<trkpt lat="53.9179" lon="15.7875">
<ele>86</ele>
<time>2017-10-08T13:38:59Z</time>
</trkpt>
<trkpt lat="53.9187" lon="15.789">
<ele>80</ele>
<time>2017-10-08T13:39:05Z</time>
</trkpt>
<trkpt lat="53.9196" lon="15.7904">
<ele>80</ele>
<time>2017-10-08T13:39:11Z</time>
</trkpt>
<trkpt lat="53.9204" lon="15.7919">
<ele>79</ele>
<time>2017-10-08T13:39:17Z</time>
</trkpt>
<trkpt lat="53.9212" lon="15.7933">
<ele>82</ele>
<time>2017-10-08T13:39:23Z</time>
</trkpt>
<trkpt lat="53.922" lon="15.7948">
<ele>85</ele>
<time>2017-10-08T13:39:29Z</time>
</trkpt>
<trkpt lat="53.9227" lon="15.7964">
<ele>83</ele>
<time>2017-10-08T13:39:35Z</time>
</trkpt>
<trkpt lat="53.9234" lon="15.798">
<ele>83</ele>
<time>2017-10-08T13:39:41Z</time>
</trkpt>
<trkpt lat="53.9241" lon="15.7996">
<ele>81</ele>
<time>2017-10-08T13:39:47Z</time>
</trkpt>
<trkpt lat="53.9248" lon="15.8012">
<ele>81</ele>
<time>2017-10-08T13:39:53Z</time>
</trkpt>
<trkpt lat="53.9345979" lon="15.8263156">
<ele>95</ele>
<time>2017-10-08T13:41:41Z</time>
</trkpt>
<trkpt lat="53.9343779" lon="15.8272540">
<ele>93</ele>
<time>2017-10-08T13:41:47Z</time>
</trkpt>
<trkpt lat="53.9346852" lon="15.8275934">
<ele>92</ele>
<time>2017-10-08T13:41:53Z</time>
</trkpt>
<trkpt lat="53.9352169" lon="15.8278528">
<ele>91</ele>
<time>2017-10-08T13:41:59Z</time>
</trkpt>
<trkpt lat="53.9358108" lon="15.8283507">
<ele>93</ele>
<time>2017-10-08T13:42:05Z</time>
</trkpt>
<trkpt lat="53.9362981" lon="15.8295497">
<ele>91</ele>
<time>2017-10-08T13:42:11Z</time>
</trkpt>
<trkpt lat="53.9367609" lon="15.8308391">
<ele>89</ele>
<time>2017-10-08T13:42:17Z</time>
</trkpt>
<trkpt lat="53.9372133" lon="15.8320648">
<ele>88</ele>
<time>2017-10-08T13:42:23Z</time>
</trkpt>
<trkpt lat="53.9377055" lon="15.8334300">
<ele>87</ele>
<time>2017-10-08T13:42:29Z</time>
</trkpt>
<trkpt lat="53.9382454" lon="15.8348983">
<ele>88</ele>
<time>2017-10-08T13:42:35Z</time>
</trkpt>
<trkpt lat="53.9387907" lon="15.8364022">
<ele>87</ele>
<time>2017-10-08T13:42:41Z</time>
</trkpt>
<trkpt lat="53.9393451" lon="15.8379431">
<ele>87</ele>
<time>2017-10-08T13:42:47Z</time>
</trkpt>
<trkpt lat="53.9399272" lon="15.8395532">
<ele>85</ele>
<time>2017-10-08T13:42:53Z</time>
</trkpt>
<trkpt lat="53.9410916" lon="15.8428495">
<ele>82</ele>
<time>2017-10-08T13:43:05Z</time>
</trkpt>
<trkpt lat="53.9416552" lon="15.8445459">
<ele>81</ele>
<time>2017-10-08T13:43:11Z</time>
</trkpt>
<trkpt lat="53.9422306" lon="15.8462366">
<ele>79</ele>
<time>2017-10-08T13:43:17Z</time>
</trkpt>
<trkpt lat="53.9429433" lon="15.8478388">
<ele>79</ele>
<time>2017-10-08T13:43:23Z</time>
</trkpt>
<trkpt lat="53.9437197" lon="15.8493752">
<ele>81</ele>
<time>2017-10-08T13:43:29Z</time>
</trkpt>
<trkpt lat="53.9444792" lon="15.8509359">
<ele>83</ele>
<time>2017-10-08T13:43:35Z</time>
</trkpt>
<trkpt lat="53.9452541" lon="15.8525460">
<ele>82</ele>
<time>2017-10-08T13:43:41Z</time>
</trkpt>
<trkpt lat="53.9460368" lon="15.8541315">
<ele>81</ele>
<time>2017-10-08T13:43:47Z</time>
</trkpt>
<trkpt lat="53.9467873" lon="15.8556875">
<ele>80</ele>
<time>2017-10-08T13:43:53Z</time>
</trkpt>
<trkpt lat="53.9475411" lon="15.8572658">
<ele>79</ele>
<time>2017-10-08T13:43:59Z</time>
</trkpt>
<trkpt lat="53.9483070" lon="15.8588430">
<ele>79</ele>
<time>2017-10-08T13:44:05Z</time>
</trkpt>
<trkpt lat="53.9490613" lon="15.8604121">
<ele>78</ele>
<time>2017-10-08T13:44:11Z</time>
</trkpt>
<trkpt lat="53.9497947" lon="15.8619247">
<ele>78</ele>
<time>2017-10-08T13:44:17Z</time>
</trkpt>
<trkpt lat="53.9505331" lon="15.8635071">
<ele>78</ele>
<time>2017-10-08T13:44:23Z</time>
</trkpt>
<trkpt lat="53.9513077" lon="15.8651179">
<ele>78</ele>
<time>2017-10-08T13:44:29Z</time>
</trkpt>
<trkpt lat="53.9520726" lon="15.8667274">
<ele>79</ele>
<time>2017-10-08T13:44:35Z</time>
</trkpt>
<trkpt lat="53.9528427" lon="15.8683148">
<ele>80</ele>
<time>2017-10-08T13:44:41Z</time>
</trkpt>
<trkpt lat="53.9535191" lon="15.8699916">
<ele>83</ele>
<time>2017-10-08T13:44:47Z</time>
</trkpt>
<trkpt lat="53.9538770" lon="15.8719417">
<ele>86</ele>
<time>2017-10-08T13:44:53Z</time>
</trkpt>
<trkpt lat="53.9542586" lon="15.8738601">
<ele>88</ele>
<time>2017-10-08T13:44:59Z</time>
</trkpt>
<trkpt lat="53.9546644" lon="15.8757983">
<ele>88</ele>
<time>2017-10-08T13:45:05Z</time>
</trkpt>
<trkpt lat="53.9550631" lon="15.8777898">
<ele>86</ele>
<time>2017-10-08T13:45:11Z</time>
</trkpt>
<trkpt lat="53.9554542" lon="15.8797300">
<ele>84</ele>
<time>2017-10-08T13:45:17Z</time>
</trkpt>
<trkpt lat="53.9558405" lon="15.8816120">
<ele>83</ele>
<time>2017-10-08T13:45:23Z</time>
</trkpt>
<trkpt lat="53.9562235" lon="15.8835023">
<ele>81</ele>
<time>2017-10-08T13:45:29Z</time>
</trkpt>
<trkpt lat="53.9565906" lon="15.8853542">
<ele>80</ele>
<time>2017-10-08T13:45:35Z</time>
</trkpt>
<trkpt lat="53.9569717" lon="15.8871510">
<ele>80</ele>
<time>2017-10-08T13:45:41Z</time>
</trkpt>
<trkpt lat="53.9573248" lon="15.8888958">
<ele>80</ele>
<time>2017-10-08T13:45:47Z</time>
</trkpt>
<trkpt lat="53.9576245" lon="15.8904920">
<ele>81</ele>
<time>2017-10-08T13:45:53Z</time>
</trkpt>
<trkpt lat="53.9577391" lon="15.8920300">
<ele>79</ele>
<time>2017-10-08T13:45:59Z</time>
</trkpt>
<trkpt lat="53.9578106" lon="15.8934145">
<ele>77</ele>
<time>2017-10-08T13:46:05Z</time>
</trkpt>
<trkpt lat="53.9578619" lon="15.8947300">
<ele>76</ele>
<time>2017-10-08T13:46:11Z</time>
</trkpt>
<trkpt lat="53.9579167" lon="15.8959762">
<ele>77</ele>
<time>2017-10-08T13:46:17Z</time>
</trkpt>
<trkpt lat="53.9579619" lon="15.8971675">
<ele>78</ele>
<time>2017-10-08T13:46:23Z</time>
</trkpt>
<trkpt lat="53.9580043" lon="15.8983647">
<ele>79</ele>
<time>2017-10-08T13:46:29Z</time>
</trkpt>
<trkpt lat="53.9580804" lon="15.8995337">
<ele>77</ele>
<time>2017-10-08T13:46:35Z</time>
</trkpt>
<trkpt lat="53.9595404" lon="15.9002717">
<ele>80</ele>
<time>2017-10-08T13:46:47Z</time>
</trkpt>
<trkpt lat="53.9604749" lon="15.9003314">
<ele>82</ele>
<time>2017-10-08T13:46:53Z</time>
</trkpt>
<trkpt lat="53.9614476" lon="15.9004297">
<ele>85</ele>
<time>2017-10-08T13:46:59Z</time>
</trkpt>
<trkpt lat="53.9624373" lon="15.9006322">
<ele>86</ele>
<time>2017-10-08T13:47:05Z</time>
</trkpt>
<trkpt lat="53.9634242" lon="15.9011440">
<ele>88</ele>
<time>2017-10-08T13:47:11Z</time>
</trkpt>
<trkpt lat="53.9643721" lon="15.9019781">
<ele>85</ele>
<time>2017-10-08T13:47:17Z</time>
</trkpt>
<trkpt lat="53.9652578" lon="15.9030426">
<ele>83</ele>
<time>2017-10-08T13:47:23Z</time>
</trkpt>
<trkpt lat="53.9661616" lon="15.9040798">
<ele>84</ele>
<time>2017-10-08T13:47:29Z</time>
</trkpt>
<trkpt lat="53.9671085" lon="15.9051319">
<ele>84</ele>
<time>2017-10-08T13:47:35Z</time>
</trkpt>
<trkpt lat="53.9680967" lon="15.9062017">
<ele>83</ele>
<time>2017-10-08T13:47:41Z</time>
</trkpt>
<trkpt lat="53.9692306" lon="15.9070118">
<ele>80</ele>
<time>2017-10-08T13:47:47Z</time>
</trkpt>
<trkpt lat="53.9703793" lon="15.9077453">
<ele>77</ele>
<time>2017-10-08T13:47:53Z</time>
</trkpt>
<trkpt lat="53.9715103" lon="15.9084236">
<ele>77</ele>
<time>2017-10-08T13:47:59Z</time>
</trkpt>
<trkpt lat="53.9725779" lon="15.9091009">
<ele>72</ele>
<time>2017-10-08T13:48:05Z</time>
</trkpt>
<trkpt lat="53.9736213" lon="15.9097896">
<ele>68</ele>
<time>2017-10-08T13:48:11Z</time>
</trkpt>
<trkpt lat="53.9745957" lon="15.9107034">
<ele>65</ele>
<time>2017-10-08T13:48:17Z</time>
</trkpt>
<trkpt lat="53.9754098" lon="15.9120900">
<ele>63</ele>
<time>2017-10-08T13:48:23Z</time>
</trkpt>
<trkpt lat="53.9762237" lon="15.9135158">
<ele>65</ele>
<time>2017-10-08T13:48:29Z</time>
</trkpt>
<trkpt lat="53.9770405" lon="15.9149031">
<ele>67</ele>
<time>2017-10-08T13:48:35Z</time>
</trkpt>
<trkpt lat="53.9778792" lon="15.9162778">
<ele>67</ele>
<time>2017-10-08T13:48:41Z</time>
</trkpt>
<trkpt lat="53.9787022" lon="15.9176310">
<ele>66</ele>
<time>2017-10-08T13:48:47Z</time>
</trkpt>
<trkpt lat="53.9793930" lon="15.9191672">
<ele>65</ele>
<time>2017-10-08T13:48:53Z</time>
</trkpt>
<trkpt lat="53.9800675" lon="15.9207561">
<ele>65</ele>
<time>2017-10-08T13:48:59Z</time>
</trkpt>
<trkpt lat="53.9807729" lon="15.9223809">
<ele>66</ele>
<time>2017-10-08T13:49:05Z</time>
</trkpt>
<trkpt lat="53.9814747" lon="15.9239861">
<ele>66</ele>
<time>2017-10-08T13:49:11Z</time>
</trkpt>
<trkpt lat="53.9821778" lon="15.9256286">
<ele>67</ele>
<time>2017-10-08T13:49:17Z</time>
</trkpt>
<trkpt lat="53.9828755" lon="15.9272536">
<ele>67</ele>
<time>2017-10-08T13:49:23Z</time>
</trkpt>
<trkpt lat="53.9835642" lon="15.9288972">
<ele>67</ele>
<time>2017-10-08T13:49:29Z</time>
</trkpt>
<trkpt lat="53.9842521" lon="15.9305001">
<ele>66</ele>
<time>2017-10-08T13:49:35Z</time>
</trkpt>
<trkpt lat="53.9848826" lon="15.9321418">
<ele>65</ele>
<time>2017-10-08T13:49:41Z</time>
</trkpt>
<trkpt lat="53.9854213" lon="15.9339315">
<ele>65</ele>
<time>2017-10-08T13:49:47Z</time>
</trkpt>
<trkpt lat="53.9859762" lon="15.9357668">
<ele>64</ele>
<time>2017-10-08T13:49:53Z</time>
</trkpt>
<trkpt lat="53.9864929" lon="15.9374495">
<ele>65</ele>
<time>2017-10-08T13:49:59Z</time>
</trkpt>
<trkpt lat="53.9869805" lon="15.9390010">
<ele>66</ele>
<time>2017-10-08T13:50:05Z</time>
</trkpt>
<trkpt lat="53.9874645" lon="15.9405693">
<ele>66</ele>
<time>2017-10-08T13:50:11Z</time>
</trkpt>
<trkpt lat="53.9879344" lon="15.9421825">
<ele>64</ele>
<time>2017-10-08T13:50:17Z</time>
</trkpt>
<trkpt lat="53.9884164" lon="15.9437425">
<ele>65</ele>
<time>2017-10-08T13:50:23Z</time>
</trkpt>
<trkpt lat="53.9888847" lon="15.9452740">
<ele>66</ele>
<time>2017-10-08T13:50:29Z</time>
</trkpt>
<trkpt lat="53.9893304" lon="15.9467748">
<ele>67</ele>
<time>2017-10-08T13:50:35Z</time>
</trkpt>
<trkpt lat="53.9898694" lon="15.9482305">
<ele>67</ele>
<time>2017-10-08T13:50:41Z</time>
</trkpt>
<trkpt lat="53.9905488" lon="15.9495436">
<ele>68</ele>
<time>2017-10-08T13:50:47Z</time>
</trkpt>
<trkpt lat="53.9912588" lon="15.9508760">
<ele>70</ele>
<time>2017-10-08T13:50:53Z</time>
</trkpt>
<trkpt lat="53.9919756" lon="15.9522022">
<ele>70</ele>
<time>2017-10-08T13:50:59Z</time>
</trkpt>
<trkpt lat="53.9926765" lon="15.9535438">
<ele>72</ele>
<time>2017-10-08T13:51:05Z</time>
</trkpt>
<trkpt lat="53.9932958" lon="15.9548732">
<ele>72</ele>
<time>2017-10-08T13:51:11Z</time>
</trkpt>
<trkpt lat="53.9938243" lon="15.9562488">
<ele>74</ele>
<time>2017-10-08T13:51:17Z</time>
</trkpt>
<trkpt lat="53.9947742" lon="15.9591190">
<ele>79</ele>
<time>2017-10-08T13:51:29Z</time>
</trkpt>
<trkpt lat="53.9952588" lon="15.9605910">
<ele>81</ele>
<time>2017-10-08T13:51:35Z</time>
</trkpt>
<trkpt lat="53.9957842" lon="15.9620533">
<ele>84</ele>
<time>2017-10-08T13:51:41Z</time>
</trkpt>
<trkpt lat="53.9962724" lon="15.9635240">
<ele>85</ele>
<time>2017-10-08T13:51:47Z</time>
</trkpt>
<trkpt lat="53.9967595" lon="15.9649937">
<ele>81</ele>
<time>2017-10-08T13:51:53Z</time>
</trkpt>
<trkpt lat="53.9972434" lon="15.9664678">
<ele>78</ele>
<time>2017-10-08T13:51:59Z</time>
</trkpt>
<trkpt lat="53.9977226" lon="15.9679022">
<ele>74</ele>
<time>2017-10-08T13:52:05Z</time>
</trkpt>
<trkpt lat="53.9982072" lon="15.9693226">
<ele>71</ele>
<time>2017-10-08T13:52:11Z</time>
</trkpt>
<trkpt lat="53.9987006" lon="15.9707661">
<ele>66</ele>
<time>2017-10-08T13:52:17Z</time>
</trkpt>
<trkpt lat="53.9991949" lon="15.9721730">
<ele>64</ele>
<time>2017-10-08T13:52:23Z</time>
</trkpt>
<trkpt lat="53.9997969" lon="15.9733680">
<ele>63</ele>
<time>2017-10-08T13:52:29Z</time>
</trkpt>
<trkpt lat="54.0003642" lon="15.9744256">
<ele>66</ele>
<time>2017-10-08T13:52:35Z</time>
</trkpt>
<trkpt lat="54.0005636" lon="15.9756571">
<ele>63</ele>
<time>2017-10-08T13:52:41Z</time>
</trkpt>
<trkpt lat="54.0003798" lon="15.9765568">
<ele>60</ele>
<time>2017-10-08T13:52:47Z</time>
</trkpt>
<trkpt lat="54.0001630" lon="15.9773463">
<ele>58</ele>
<time>2017-10-08T13:52:53Z</time>
</trkpt>
<trkpt lat="53.9999476" lon="15.9780733">
<ele>57</ele>
<time>2017-10-08T13:52:59Z</time>
</trkpt>
<trkpt lat="53.9997309" lon="15.9787592">
<ele>58</ele>
<time>2017-10-08T13:53:05Z</time>
</trkpt>
<trkpt lat="53.9996263" lon="15.9791217">
<ele>58</ele>
<time>2017-10-08T13:53:11Z</time>
</trkpt>
<trkpt lat="53.9996251" lon="15.9792372">
<ele>58</ele>
<time>2017-10-08T13:53:17Z</time>
</trkpt>
<trkpt lat="53.9998140" lon="15.9793717">
<ele>61</ele>
<time>2017-10-08T13:53:23Z</time>
</trkpt>
<trkpt lat="54.0001495" lon="15.9795814">
<ele>62</ele>
<time>2017-10-08T13:53:29Z</time>
</trkpt>
<trkpt lat="54.0005586" lon="15.9798672">
<ele>63</ele>
<time>2017-10-08T13:53:35Z</time>
</trkpt>
<trkpt lat="54.0010742" lon="15.9802446">
<ele>64</ele>
<time>2017-10-08T13:53:41Z</time>
</trkpt>
<trkpt lat="54.0015904" lon="15.9807092">
<ele>65</ele>
<time>2017-10-08T13:53:47Z</time>
</trkpt>
<trkpt lat="54.0021234" lon="15.9810841">
<ele>64</ele>
<time>2017-10-08T13:53:53Z</time>
</trkpt>
<trkpt lat="54.0025654" lon="15.9813980">
<ele>64</ele>
<time>2017-10-08T13:53:59Z</time>
</trkpt>
<trkpt lat="54.0029313" lon="15.9817577">
<ele>63</ele>
<time>2017-10-08T13:54:05Z</time>
</trkpt>
<trkpt lat="54.0032501" lon="15.9820937">
<ele>64</ele>
<time>2017-10-08T13:54:11Z</time>
</trkpt>
<trkpt lat="54.0034283" lon="15.9819899">
<ele>64</ele>
<time>2017-10-08T13:54:17Z</time>
</trkpt>
<trkpt lat="54.0034243" lon="15.9815642">
<ele>65</ele>
<time>2017-10-08T13:54:23Z</time>
</trkpt>
<trkpt lat="54.0035400" lon="15.9808349">
<ele>64</ele>
<time>2017-10-08T13:54:29Z</time>
</trkpt>
<trkpt lat="54.0039036" lon="15.9802281">
<ele>64</ele>
<time>2017-10-08T13:54:35Z</time>
</trkpt>
<trkpt lat="54.0044178" lon="15.9796665">
<ele>64</ele>
<time>2017-10-08T13:54:41Z</time>
</trkpt>
<trkpt lat="54.0049738" lon="15.9790224">
<ele>65</ele>
<time>2017-10-08T13:54:47Z</time>
</trkpt>
<trkpt lat="54.0054738" lon="15.9784087">
<ele>66</ele>
<time>2017-10-08T13:54:53Z</time>
</trkpt>
<trkpt lat="54.0060003" lon="15.9782507">
<ele>67</ele>
<time>2017-10-08T13:54:59Z</time>
</trkpt>
<trkpt lat="54.0065681" lon="15.9785941">
<ele>67</ele>
<time>2017-10-08T13:55:05Z</time>
</trkpt>
<trkpt lat="54.0071559" lon="15.9787549">
<ele>67</ele>
<time>2017-10-08T13:55:11Z</time>
</trkpt>
<trkpt lat="54.0077108" lon="15.9788129">
<ele>70</ele>
<time>2017-10-08T13:55:17Z</time>
</trkpt>
<trkpt lat="54.0080015" lon="15.9787687">
<ele>69</ele>
<time>2017-10-08T13:55:23Z</time>
</trkpt>
<trkpt lat="54.0080384" lon="15.9784839">
<ele>69</ele>
<time>2017-10-08T13:55:29Z</time>
</trkpt>
<trkpt lat="54.0079141" lon="15.9783632">
<ele>69</ele>
<time>2017-10-08T13:55:35Z</time>
</trkpt>
<trkpt lat="54.0078218" lon="15.9784514">
<ele>69</ele>
<time>2017-10-08T13:55:41Z</time>
</trkpt>
<trkpt lat="54.0078658" lon="15.9785458">
<ele>69</ele>
<time>2017-10-08T13:55:47Z</time>
</trkpt>
<trkpt lat="54.0078695" lon="15.9785421">
<ele>68</ele>
<time>2017-10-08T13:55:53Z</time>
</trkpt>
<trkpt lat="54.0078695" lon="15.9785421">
<ele>68</ele>
<time>2017-10-08T13:55:59Z</time>
</trkpt>
<trkpt lat="54.0078695" lon="15.9785421">
<ele>68</ele>
<time>2017-10-08T13:56:05Z</time>
</trkpt>
<trkpt lat="54.0078695" lon="15.9785421">
<ele>68</ele>
<time>2017-10-08T13:56:11Z</time>
</trkpt>
<trkpt lat="" lon="">
<ele></ele>
<time>2017-10-08TZ</time>
</trkpt>
</trkseg>
</trk>
<wpt lat="" lon="">
	<name></name>
	<desc></desc>
	<cmt></cmt>
	<photoid></photoid>
	<type></type>
</wpt>
</gpx>
